sensor_id;sensor_type;location;lat;lon;timestamp;temperature;humidity
46816;DHT22;32787;53.316;8.670;2023-07-13T00:01:47;13.90;94.30
46816;DHT22;32787;53.316;8.670;2023-07-13T00:04:19;13.90;94.40
46816;DHT22;32787;53.316;8.670;2023-07-13T00:06:46;13.90;94.40
46816;DHT22;32787;53.316;8.670;2023-07-13T00:09:16;13.80;94.40
46816;DHT22;32787;53.316;8.670;2023-07-13T00:11:42;13.80;94.50
46816;DHT22;32787;53.316;8.670;2023-07-13T00:14:09;13.60;94.40
46816;DHT22;32787;53.316;8.670;2023-07-13T00:16:37;13.70;94.40
46816;DHT22;32787;53.316;8.670;2023-07-13T00:19:03;13.50;94.40
46816;DHT22;32787;53.316;8.670;2023-07-13T00:21:28;13.50;94.50
46816;DHT22;32787;53.316;8.670;2023-07-13T00:23:54;13.60;94.60
46816;DHT22;32787;53.316;8.670;2023-07-13T00:26:20;13.60;94.60
46816;DHT22;32787;53.316;8.670;2023-07-13T00:28:45;13.70;94.50
46816;DHT22;32787;53.316;8.670;2023-07-13T00:31:12;13.80;94.60
46816;DHT22;32787;53.316;8.670;2023-07-13T00:33:40;13.80;94.50
46816;DHT22;32787;53.316;8.670;2023-07-13T00:36:06;13.70;94.40
46816;DHT22;32787;53.316;8.670;2023-07-13T00:38:32;13.60;94.40
46816;DHT22;32787;53.316;8.670;2023-07-13T00:40:58;13.60;94.40
46816;DHT22;32787;53.316;8.670;2023-07-13T00:43:26;13.50;94.50
46816;DHT22;32787;53.316;8.670;2023-07-13T00:48:21;13.60;94.60
46816;DHT22;32787;53.316;8.670;2023-07-13T00:50:49;13.60;94.50
46816;DHT22;32787;53.316;8.670;2023-07-13T00:53:16;13.60;94.50
46816;DHT22;32787;53.316;8.670;2023-07-13T00:55:42;13.70;94.60
46816;DHT22;32787;53.316;8.670;2023-07-13T00:58:09;13.80;94.50
46816;DHT22;32787;53.316;8.670;2023-07-13T01:00:36;13.80;94.40
46816;DHT22;32787;53.316;8.670;2023-07-13T01:03:04;13.90;94.40
46816;DHT22;32787;53.316;8.670;2023-07-13T01:05:32;13.80;94.30
46816;DHT22;32787;53.316;8.670;2023-07-13T01:07:58;13.80;94.30
46816;DHT22;32787;53.316;8.670;2023-07-13T01:10:25;13.80;94.10
46816;DHT22;32787;53.316;8.670;2023-07-13T01:12:51;13.80;94.10
46816;DHT22;32787;53.316;8.670;2023-07-13T01:15:40;13.80;94.10
46816;DHT22;32787;53.316;8.670;2023-07-13T01:18:26;13.80;94.20
46816;DHT22;32787;53.316;8.670;2023-07-13T01:20:59;13.70;94.00
46816;DHT22;32787;53.316;8.670;2023-07-13T01:23:27;13.50;93.90
46816;DHT22;32787;53.316;8.670;2023-07-13T01:25:53;13.50;94.20
46816;DHT22;32787;53.316;8.670;2023-07-13T01:28:21;13.50;94.20
46816;DHT22;32787;53.316;8.670;2023-07-13T01:30:47;13.60;94.20
46816;DHT22;32787;53.316;8.670;2023-07-13T01:33:14;13.50;94.10
46816;DHT22;32787;53.316;8.670;2023-07-13T01:35:40;13.60;94.30
46816;DHT22;32787;53.316;8.670;2023-07-13T01:38:07;13.80;94.40
46816;DHT22;32787;53.316;8.670;2023-07-13T01:40:34;13.70;94.10
46816;DHT22;32787;53.316;8.670;2023-07-13T01:43:00;13.50;93.90
46816;DHT22;32787;53.316;8.670;2023-07-13T01:45:26;13.60;94.00
46816;DHT22;32787;53.316;8.670;2023-07-13T01:47:52;13.50;94.00
46816;DHT22;32787;53.316;8.670;2023-07-13T01:50:17;13.50;93.90
46816;DHT22;32787;53.316;8.670;2023-07-13T01:52:43;13.30;94.00
46816;DHT22;32787;53.316;8.670;2023-07-13T01:55:08;13.40;94.20
46816;DHT22;32787;53.316;8.670;2023-07-13T01:57:34;13.40;94.20
46816;DHT22;32787;53.316;8.670;2023-07-13T02:00:04;13.40;94.20
46816;DHT22;32787;53.316;8.670;2023-07-13T02:02:30;13.40;94.30
46816;DHT22;32787;53.316;8.670;2023-07-13T02:04:56;13.30;94.20
46816;DHT22;32787;53.316;8.670;2023-07-13T02:07:22;13.40;94.20
46816;DHT22;32787;53.316;8.670;2023-07-13T02:09:47;13.40;94.30
46816;DHT22;32787;53.316;8.670;2023-07-13T02:12:13;13.30;94.20
46816;DHT22;32787;53.316;8.670;2023-07-13T02:14:38;13.40;94.20
46816;DHT22;32787;53.316;8.670;2023-07-13T02:17:05;13.30;94.10
46816;DHT22;32787;53.316;8.670;2023-07-13T02:19:31;13.30;94.10
46816;DHT22;32787;53.316;8.670;2023-07-13T02:21:57;13.30;94.20
46816;DHT22;32787;53.316;8.670;2023-07-13T02:24:23;13.40;94.30
46816;DHT22;32787;53.316;8.670;2023-07-13T02:26:48;13.40;94.20
46816;DHT22;32787;53.316;8.670;2023-07-13T02:29:14;13.30;94.20
46816;DHT22;32787;53.316;8.670;2023-07-13T02:31:40;13.30;94.10
46816;DHT22;32787;53.316;8.670;2023-07-13T02:34:05;13.30;94.10
46816;DHT22;32787;53.316;8.670;2023-07-13T02:36:31;13.30;94.20
46816;DHT22;32787;53.316;8.670;2023-07-13T02:39:02;13.40;94.10
46816;DHT22;32787;53.316;8.670;2023-07-13T02:41:28;13.40;94.10
46816;DHT22;32787;53.316;8.670;2023-07-13T02:43:54;13.30;94.00
46816;DHT22;32787;53.316;8.670;2023-07-13T02:46:28;13.10;94.00
46816;DHT22;32787;53.316;8.670;2023-07-13T02:48:54;13.10;94.20
46816;DHT22;32787;53.316;8.670;2023-07-13T02:51:19;13.10;94.40
46816;DHT22;32787;53.316;8.670;2023-07-13T02:53:45;13.10;94.50
46816;DHT22;32787;53.316;8.670;2023-07-13T02:56:10;13.30;94.50
46816;DHT22;32787;53.316;8.670;2023-07-13T02:58:36;13.20;94.40
46816;DHT22;32787;53.316;8.670;2023-07-13T03:01:09;13.20;94.40
46816;DHT22;32787;53.316;8.670;2023-07-13T03:03:35;13.10;94.40
46816;DHT22;32787;53.316;8.670;2023-07-13T03:06:02;13.30;94.40
46816;DHT22;32787;53.316;8.670;2023-07-13T03:08:28;13.30;94.30
46816;DHT22;32787;53.316;8.670;2023-07-13T03:11:01;13.30;94.30
46816;DHT22;32787;53.316;8.670;2023-07-13T03:13:27;13.40;94.30
46816;DHT22;32787;53.316;8.670;2023-07-13T03:15:52;13.40;94.30
46816;DHT22;32787;53.316;8.670;2023-07-13T03:18:18;13.40;94.30
46816;DHT22;32787;53.316;8.670;2023-07-13T03:20:44;13.40;94.30
46816;DHT22;32787;53.316;8.670;2023-07-13T03:23:09;13.40;94.20
46816;DHT22;32787;53.316;8.670;2023-07-13T03:25:35;13.40;94.10
46816;DHT22;32787;53.316;8.670;2023-07-13T03:28:00;13.50;94.20
46816;DHT22;32787;53.316;8.670;2023-07-13T03:30:26;13.60;94.10
46816;DHT22;32787;53.316;8.670;2023-07-13T03:32:52;13.60;94.20
46816;DHT22;32787;53.316;8.670;2023-07-13T03:35:17;13.60;94.20
46816;DHT22;32787;53.316;8.670;2023-07-13T03:37:43;13.70;94.10
46816;DHT22;32787;53.316;8.670;2023-07-13T03:40:09;13.70;94.00
46816;DHT22;32787;53.316;8.670;2023-07-13T03:42:35;13.80;94.10
46816;DHT22;32787;53.316;8.670;2023-07-13T03:45:01;13.90;94.10
46816;DHT22;32787;53.316;8.670;2023-07-13T03:47:27;13.80;94.00
46816;DHT22;32787;53.316;8.670;2023-07-13T03:49:52;13.80;94.00
46816;DHT22;32787;53.316;8.670;2023-07-13T03:52:18;13.90;94.10
46816;DHT22;32787;53.316;8.670;2023-07-13T03:54:44;14.00;94.10
46816;DHT22;32787;53.316;8.670;2023-07-13T03:57:10;14.00;94.00
46816;DHT22;32787;53.316;8.670;2023-07-13T03:59:36;14.10;94.10
46816;DHT22;32787;53.316;8.670;2023-07-13T04:02:02;14.00;94.10
46816;DHT22;32787;53.316;8.670;2023-07-13T04:04:29;14.10;94.00
46816;DHT22;32787;53.316;8.670;2023-07-13T04:06:57;14.00;93.90
46816;DHT22;32787;53.316;8.670;2023-07-13T04:09:24;14.10;94.00
46816;DHT22;32787;53.316;8.670;2023-07-13T04:11:50;14.30;94.10
46816;DHT22;32787;53.316;8.670;2023-07-13T04:14:16;14.40;93.70
46816;DHT22;32787;53.316;8.670;2023-07-13T04:16:42;14.60;93.30
46816;DHT22;32787;53.316;8.670;2023-07-13T04:19:08;14.40;93.10
46816;DHT22;32787;53.316;8.670;2023-07-13T04:21:36;14.40;93.30
46816;DHT22;32787;53.316;8.670;2023-07-13T04:24:02;14.40;93.20
46816;DHT22;32787;53.316;8.670;2023-07-13T04:26:28;14.40;93.40
46816;DHT22;32787;53.316;8.670;2023-07-13T04:28:55;14.60;93.40
46816;DHT22;32787;53.316;8.670;2023-07-13T04:31:21;14.70;93.20
46816;DHT22;32787;53.316;8.670;2023-07-13T04:33:48;14.70;92.80
46816;DHT22;32787;53.316;8.670;2023-07-13T04:36:15;14.60;92.70
46816;DHT22;32787;53.316;8.670;2023-07-13T04:38:41;14.80;92.90
46816;DHT22;32787;53.316;8.670;2023-07-13T04:41:08;14.80;92.70
46816;DHT22;32787;53.316;8.670;2023-07-13T04:43:34;14.80;92.80
46816;DHT22;32787;53.316;8.670;2023-07-13T04:46:06;14.80;92.50
46816;DHT22;32787;53.316;8.670;2023-07-13T04:48:31;14.90;92.60
46816;DHT22;32787;53.316;8.670;2023-07-13T04:50:58;14.90;92.40
46816;DHT22;32787;53.316;8.670;2023-07-13T04:53:24;15.00;92.10
46816;DHT22;32787;53.316;8.670;2023-07-13T04:55:50;15.00;92.40
46816;DHT22;32787;53.316;8.670;2023-07-13T04:58:16;15.10;92.30
46816;DHT22;32787;53.316;8.670;2023-07-13T05:00:42;15.00;92.20
46816;DHT22;32787;53.316;8.670;2023-07-13T05:03:08;15.10;92.30
46816;DHT22;32787;53.316;8.670;2023-07-13T05:05:33;15.10;92.30
46816;DHT22;32787;53.316;8.670;2023-07-13T05:07:59;15.10;92.70
46816;DHT22;32787;53.316;8.670;2023-07-13T05:10:25;15.10;92.80
46816;DHT22;32787;53.316;8.670;2023-07-13T05:12:51;15.00;92.60
46816;DHT22;32787;53.316;8.670;2023-07-13T05:15:17;15.20;92.80
46816;DHT22;32787;53.316;8.670;2023-07-13T05:17:47;15.20;92.30
46816;DHT22;32787;53.316;8.670;2023-07-13T05:20:12;15.30;92.40
46816;DHT22;32787;53.316;8.670;2023-07-13T05:22:38;15.30;92.60
46816;DHT22;32787;53.316;8.670;2023-07-13T05:25:07;15.30;92.70
46816;DHT22;32787;53.316;8.670;2023-07-13T05:27:34;15.60;92.20
46816;DHT22;32787;53.316;8.670;2023-07-13T05:30:00;15.70;92.00
46816;DHT22;32787;53.316;8.670;2023-07-13T05:32:26;15.60;91.80
46816;DHT22;32787;53.316;8.670;2023-07-13T05:34:51;15.60;91.70
46816;DHT22;32787;53.316;8.670;2023-07-13T05:37:17;15.70;91.70
46816;DHT22;32787;53.316;8.670;2023-07-13T05:39:43;15.70;91.60
46816;DHT22;32787;53.316;8.670;2023-07-13T05:42:09;15.70;91.30
46816;DHT22;32787;53.316;8.670;2023-07-13T05:44:34;15.60;91.50
46816;DHT22;32787;53.316;8.670;2023-07-13T05:47:00;15.80;91.30
46816;DHT22;32787;53.316;8.670;2023-07-13T05:49:25;15.80;91.00
46816;DHT22;32787;53.316;8.670;2023-07-13T05:51:51;15.80;91.70
46816;DHT22;32787;53.316;8.670;2023-07-13T05:54:16;15.90;91.40
46816;DHT22;32787;53.316;8.670;2023-07-13T05:56:42;15.90;91.10
46816;DHT22;32787;53.316;8.670;2023-07-13T05:59:08;15.90;90.90
46816;DHT22;32787;53.316;8.670;2023-07-13T06:01:33;15.90;91.40
46816;DHT22;32787;53.316;8.670;2023-07-13T06:03:59;16.00;90.80
46816;DHT22;32787;53.316;8.670;2023-07-13T06:06:25;15.80;91.40
46816;DHT22;32787;53.316;8.670;2023-07-13T06:08:50;15.80;91.10
46816;DHT22;32787;53.316;8.670;2023-07-13T06:11:18;16.00;91.10
46816;DHT22;32787;53.316;8.670;2023-07-13T06:13:44;15.80;91.00
46816;DHT22;32787;53.316;8.670;2023-07-13T06:16:11;15.70;91.50
46816;DHT22;32787;53.316;8.670;2023-07-13T06:18:40;15.80;91.40
46816;DHT22;32787;53.316;8.670;2023-07-13T06:21:10;15.90;91.10
46816;DHT22;32787;53.316;8.670;2023-07-13T06:23:37;16.00;90.70
46816;DHT22;32787;53.316;8.670;2023-07-13T06:26:03;16.10;91.00
46816;DHT22;32787;53.316;8.670;2023-07-13T06:28:29;16.30;90.80
46816;DHT22;32787;53.316;8.670;2023-07-13T06:30:57;16.40;90.30
46816;DHT22;32787;53.316;8.670;2023-07-13T06:33:23;16.30;90.90
46816;DHT22;32787;53.316;8.670;2023-07-13T06:35:48;16.70;90.20
46816;DHT22;32787;53.316;8.670;2023-07-13T06:38:14;16.70;90.30
46816;DHT22;32787;53.316;8.670;2023-07-13T06:40:39;16.70;89.90
46816;DHT22;32787;53.316;8.670;2023-07-13T06:43:06;16.80;89.90
46816;DHT22;32787;53.316;8.670;2023-07-13T06:45:36;17.00;89.40
46816;DHT22;32787;53.316;8.670;2023-07-13T06:48:05;16.90;89.60
46816;DHT22;32787;53.316;8.670;2023-07-13T06:50:31;16.80;89.70
46816;DHT22;32787;53.316;8.670;2023-07-13T06:52:56;16.90;89.60
46816;DHT22;32787;53.316;8.670;2023-07-13T06:55:22;16.90;89.00
46816;DHT22;32787;53.316;8.670;2023-07-13T06:57:48;16.80;89.40
46816;DHT22;32787;53.316;8.670;2023-07-13T07:00:14;16.70;89.90
46816;DHT22;32787;53.316;8.670;2023-07-13T07:02:39;16.80;90.20
46816;DHT22;32787;53.316;8.670;2023-07-13T07:05:05;16.90;89.50
46816;DHT22;32787;53.316;8.670;2023-07-13T07:07:31;16.90;89.20
46816;DHT22;32787;53.316;8.670;2023-07-13T07:09:56;17.00;89.30
46816;DHT22;32787;53.316;8.670;2023-07-13T07:12:22;17.00;89.00
46816;DHT22;32787;53.316;8.670;2023-07-13T07:14:47;17.20;89.30
46816;DHT22;32787;53.316;8.670;2023-07-13T07:17:13;17.20;89.00
46816;DHT22;32787;53.316;8.670;2023-07-13T07:19:39;17.30;88.60
46816;DHT22;32787;53.316;8.670;2023-07-13T07:22:04;17.30;88.70
46816;DHT22;32787;53.316;8.670;2023-07-13T07:24:30;17.30;88.50
46816;DHT22;32787;53.316;8.670;2023-07-13T07:26:55;17.20;88.70
46816;DHT22;32787;53.316;8.670;2023-07-13T07:29:21;17.30;88.40
46816;DHT22;32787;53.316;8.670;2023-07-13T07:31:47;17.40;88.80
46816;DHT22;32787;53.316;8.670;2023-07-13T07:34:13;17.30;88.60
46816;DHT22;32787;53.316;8.670;2023-07-13T07:36:38;17.40;88.40
46816;DHT22;32787;53.316;8.670;2023-07-13T07:39:04;17.20;88.20
46816;DHT22;32787;53.316;8.670;2023-07-13T07:41:30;17.30;88.70
46816;DHT22;32787;53.316;8.670;2023-07-13T07:43:56;17.50;88.40
46816;DHT22;32787;53.316;8.670;2023-07-13T07:46:21;17.50;88.20
46816;DHT22;32787;53.316;8.670;2023-07-13T07:48:47;17.50;87.40
46816;DHT22;32787;53.316;8.670;2023-07-13T07:51:12;17.60;86.50
46816;DHT22;32787;53.316;8.670;2023-07-13T07:53:38;17.70;86.60
46816;DHT22;32787;53.316;8.670;2023-07-13T07:56:03;17.70;87.30
46816;DHT22;32787;53.316;8.670;2023-07-13T07:58:29;17.80;87.30
46816;DHT22;32787;53.316;8.670;2023-07-13T08:01:02;17.90;87.10
46816;DHT22;32787;53.316;8.670;2023-07-13T08:03:28;18.10;86.40
46816;DHT22;32787;53.316;8.670;2023-07-13T08:05:54;18.20;85.60
46816;DHT22;32787;53.316;8.670;2023-07-13T08:08:19;18.10;85.90
46816;DHT22;32787;53.316;8.670;2023-07-13T08:10:45;18.20;86.40
46816;DHT22;32787;53.316;8.670;2023-07-13T08:13:11;18.30;87.10
46816;DHT22;32787;53.316;8.670;2023-07-13T08:15:37;18.10;85.20
46816;DHT22;32787;53.316;8.670;2023-07-13T08:18:02;18.20;85.20
46816;DHT22;32787;53.316;8.670;2023-07-13T08:20:28;18.10;85.30
46816;DHT22;32787;53.316;8.670;2023-07-13T08:22:54;18.20;86.20
46816;DHT22;32787;53.316;8.670;2023-07-13T08:25:19;18.30;85.50
46816;DHT22;32787;53.316;8.670;2023-07-13T08:27:46;18.30;84.40
46816;DHT22;32787;53.316;8.670;2023-07-13T08:30:11;18.50;84.50
46816;DHT22;32787;53.316;8.670;2023-07-13T08:32:37;18.50;84.50
46816;DHT22;32787;53.316;8.670;2023-07-13T08:35:04;18.50;84.50
46816;DHT22;32787;53.316;8.670;2023-07-13T08:37:30;18.40;85.00
46816;DHT22;32787;53.316;8.670;2023-07-13T08:39:55;18.60;85.00
46816;DHT22;32787;53.316;8.670;2023-07-13T08:42:36;18.80;83.90
46816;DHT22;32787;53.316;8.670;2023-07-13T08:47:46;18.80;83.30
46816;DHT22;32787;53.316;8.670;2023-07-13T08:50:17;19.00;83.50
46816;DHT22;32787;53.316;8.670;2023-07-13T08:52:44;19.10;82.70
46816;DHT22;32787;53.316;8.670;2023-07-13T08:55:24;19.10;83.70
46816;DHT22;32787;53.316;8.670;2023-07-13T08:58:11;19.10;82.70
46816;DHT22;32787;53.316;8.670;2023-07-13T09:00:48;19.20;83.80
46816;DHT22;32787;53.316;8.670;2023-07-13T09:03:24;19.20;82.70
46816;DHT22;32787;53.316;8.670;2023-07-13T09:05:56;19.20;80.80
46816;DHT22;32787;53.316;8.670;2023-07-13T09:11:28;19.30;79.90
46816;DHT22;32787;53.316;8.670;2023-07-13T09:14:38;19.50;79.60
46816;DHT22;32787;53.316;8.670;2023-07-13T09:17:10;19.20;77.60
46816;DHT22;32787;53.316;8.670;2023-07-13T09:19:37;19.10;79.50
46816;DHT22;32787;53.316;8.670;2023-07-13T09:22:05;19.20;79.70
46816;DHT22;32787;53.316;8.670;2023-07-13T09:24:46;19.30;79.70
46816;DHT22;32787;53.316;8.670;2023-07-13T09:27:23;19.70;78.30
46816;DHT22;32787;53.316;8.670;2023-07-13T09:30:17;19.80;77.10
46816;DHT22;32787;53.316;8.670;2023-07-13T09:32:51;19.80;76.20
46816;DHT22;32787;53.316;8.670;2023-07-13T09:35:21;19.90;74.20
46816;DHT22;32787;53.316;8.670;2023-07-13T09:37:47;20.10;74.10
46816;DHT22;32787;53.316;8.670;2023-07-13T09:40:39;20.20;72.90
46816;DHT22;32787;53.316;8.670;2023-07-13T09:43:08;20.10;73.80
46816;DHT22;32787;53.316;8.670;2023-07-13T09:45:36;20.10;73.50
46816;DHT22;32787;53.316;8.670;2023-07-13T09:48:10;20.10;72.10
46816;DHT22;32787;53.316;8.670;2023-07-13T09:50:36;19.90;71.90
46816;DHT22;32787;53.316;8.670;2023-07-13T09:53:02;20.00;73.50
46816;DHT22;32787;53.316;8.670;2023-07-13T09:55:36;20.00;71.40
46816;DHT22;32787;53.316;8.670;2023-07-13T09:58:09;20.20;71.20
46816;DHT22;32787;53.316;8.670;2023-07-13T10:00:36;20.30;68.80
46816;DHT22;32787;53.316;8.670;2023-07-13T10:03:18;20.40;72.50
46816;DHT22;32787;53.316;8.670;2023-07-13T10:05:45;20.40;71.80
46816;DHT22;32787;53.316;8.670;2023-07-13T10:08:24;20.50;70.50
46816;DHT22;32787;53.316;8.670;2023-07-13T10:10:58;20.70;70.30
46816;DHT22;32787;53.316;8.670;2023-07-13T10:13:36;20.80;69.00
46816;DHT22;32787;53.316;8.670;2023-07-13T10:16:04;20.90;67.40
46816;DHT22;32787;53.316;8.670;2023-07-13T10:18:35;21.10;69.80
46816;DHT22;32787;53.316;8.670;2023-07-13T10:21:32;21.20;69.50
46816;DHT22;32787;53.316;8.670;2023-07-13T10:24:23;21.50;67.00
46816;DHT22;32787;53.316;8.670;2023-07-13T10:27:19;21.70;71.40
46816;DHT22;32787;53.316;8.670;2023-07-13T10:29:50;21.60;66.90
46816;DHT22;32787;53.316;8.670;2023-07-13T10:32:19;21.50;66.60
46816;DHT22;32787;53.316;8.670;2023-07-13T10:34:46;21.20;68.40
46816;DHT22;32787;53.316;8.670;2023-07-13T10:37:20;21.00;68.20
46816;DHT22;32787;53.316;8.670;2023-07-13T10:39:47;20.80;69.70
46816;DHT22;32787;53.316;8.670;2023-07-13T10:42:18;20.70;67.60
46816;DHT22;32787;53.316;8.670;2023-07-13T10:44:47;20.60;67.60
46816;DHT22;32787;53.316;8.670;2023-07-13T10:47:14;20.30;64.90
46816;DHT22;32787;53.316;8.670;2023-07-13T10:49:40;20.40;65.80
46816;DHT22;32787;53.316;8.670;2023-07-13T10:58:00;21.20;67.20
46816;DHT22;32787;53.316;8.670;2023-07-13T11:00:26;21.70;68.80
46816;DHT22;32787;53.316;8.670;2023-07-13T11:02:59;22.10;65.80
46816;DHT22;32787;53.316;8.670;2023-07-13T11:05:32;21.60;64.80
46816;DHT22;32787;53.316;8.670;2023-07-13T11:10:51;21.40;68.20
46816;DHT22;32787;53.316;8.670;2023-07-13T11:16:45;20.80;69.30
46816;DHT22;32787;53.316;8.670;2023-07-13T11:27:39;20.70;70.10
46816;DHT22;32787;53.316;8.670;2023-07-13T11:35:41;20.90;72.00
46816;DHT22;32787;53.316;8.670;2023-07-13T11:41:17;20.40;66.30
46816;DHT22;32787;53.316;8.670;2023-07-13T11:43:45;20.30;67.40
46816;DHT22;32787;53.316;8.670;2023-07-13T11:46:22;20.10;65.70
46816;DHT22;32787;53.316;8.670;2023-07-13T11:48:49;19.70;64.70
46816;DHT22;32787;53.316;8.670;2023-07-13T11:53:46;19.20;65.10
46816;DHT22;32787;53.316;8.670;2023-07-13T11:56:13;19.20;67.00
46816;DHT22;32787;53.316;8.670;2023-07-13T11:58:39;19.00;66.00
46816;DHT22;32787;53.316;8.670;2023-07-13T12:01:05;18.80;67.80
46816;DHT22;32787;53.316;8.670;2023-07-13T12:03:32;18.80;67.50
46816;DHT22;32787;53.316;8.670;2023-07-13T12:06:06;18.80;69.00
46816;DHT22;32787;53.316;8.670;2023-07-13T12:08:43;18.60;69.20
46816;DHT22;32787;53.316;8.670;2023-07-13T12:11:17;18.60;70.90
46816;DHT22;32787;53.316;8.670;2023-07-13T12:13:44;18.60;72.70
46816;DHT22;32787;53.316;8.670;2023-07-13T12:16:33;18.60;71.60
46816;DHT22;32787;53.316;8.670;2023-07-13T12:18:59;18.30;72.10
46816;DHT22;32787;53.316;8.670;2023-07-13T12:21:37;18.30;73.40
46816;DHT22;32787;53.316;8.670;2023-07-13T12:24:04;18.40;73.50
46816;DHT22;32787;53.316;8.670;2023-07-13T12:26:31;18.40;74.30
46816;DHT22;32787;53.316;8.670;2023-07-13T12:29:01;18.50;74.10
46816;DHT22;32787;53.316;8.670;2023-07-13T12:31:40;18.60;75.20
46816;DHT22;32787;53.316;8.670;2023-07-13T12:34:14;18.80;75.30
46816;DHT22;32787;53.316;8.670;2023-07-13T12:39:51;20.50;72.50
46816;DHT22;32787;53.316;8.670;2023-07-13T12:42:22;22.60;67.90
46816;DHT22;32787;53.316;8.670;2023-07-13T12:45:12;24.00;58.50
46816;DHT22;32787;53.316;8.670;2023-07-13T12:47:43;25.20;56.00
46816;DHT22;32787;53.316;8.670;2023-07-13T12:50:18;25.00;57.70
46816;DHT22;32787;53.316;8.670;2023-07-13T12:52:53;23.50;60.00
46816;DHT22;32787;53.316;8.670;2023-07-13T12:55:20;22.30;63.20
46816;DHT22;32787;53.316;8.670;2023-07-13T12:57:55;21.40;64.80
46816;DHT22;32787;53.316;8.670;2023-07-13T13:00:30;21.60;68.10
46816;DHT22;32787;53.316;8.670;2023-07-13T13:03:02;21.40;67.50
46816;DHT22;32787;53.316;8.670;2023-07-13T13:05:30;20.90;68.60
46816;DHT22;32787;53.316;8.670;2023-07-13T13:07:56;20.50;70.20
46816;DHT22;32787;53.316;8.670;2023-07-13T13:10:22;20.10;68.30
46816;DHT22;32787;53.316;8.670;2023-07-13T13:12:48;20.20;66.30
46816;DHT22;32787;53.316;8.670;2023-07-13T13:15:13;21.30;60.50
46816;DHT22;32787;53.316;8.670;2023-07-13T13:17:40;23.70;56.50
46816;DHT22;32787;53.316;8.670;2023-07-13T13:20:32;25.40;52.50
46816;DHT22;32787;53.316;8.670;2023-07-13T13:22:57;24.40;47.80
46816;DHT22;32787;53.316;8.670;2023-07-13T13:25:23;23.00;53.60
46816;DHT22;32787;53.316;8.670;2023-07-13T13:27:48;22.30;54.10
46816;DHT22;32787;53.316;8.670;2023-07-13T13:30:17;21.20;56.80
46816;DHT22;32787;53.316;8.670;2023-07-13T13:32:45;20.60;58.50
46816;DHT22;32787;53.316;8.670;2023-07-13T13:35:20;20.60;60.60
46816;DHT22;32787;53.316;8.670;2023-07-13T13:37:47;20.20;61.30
46816;DHT22;32787;53.316;8.670;2023-07-13T13:40:21;20.10;63.30
46816;DHT22;32787;53.316;8.670;2023-07-13T13:42:51;19.80;63.70
46816;DHT22;32787;53.316;8.670;2023-07-13T13:45:19;19.80;65.00
46816;DHT22;32787;53.316;8.670;2023-07-13T13:47:46;19.50;66.60
46816;DHT22;32787;53.316;8.670;2023-07-13T13:50:16;19.20;68.50
46816;DHT22;32787;53.316;8.670;2023-07-13T13:52:43;19.00;68.90
46816;DHT22;32787;53.316;8.670;2023-07-13T13:55:14;18.40;71.30
46816;DHT22;32787;53.316;8.670;2023-07-13T13:57:40;18.20;74.80
46816;DHT22;32787;53.316;8.670;2023-07-13T14:00:06;17.90;77.30
46816;DHT22;32787;53.316;8.670;2023-07-13T14:02:32;17.80;79.60
46816;DHT22;32787;53.316;8.670;2023-07-13T14:05:00;17.80;80.00
46816;DHT22;32787;53.316;8.670;2023-07-13T14:07:26;17.80;79.30
46816;DHT22;32787;53.316;8.670;2023-07-13T14:09:57;17.60;80.20
46816;DHT22;32787;53.316;8.670;2023-07-13T14:12:23;17.70;81.70
46816;DHT22;32787;53.316;8.670;2023-07-13T14:14:54;17.70;80.40
46816;DHT22;32787;53.316;8.670;2023-07-13T14:17:22;17.40;81.20
46816;DHT22;32787;53.316;8.670;2023-07-13T14:19:50;17.20;83.40
46816;DHT22;32787;53.316;8.670;2023-07-13T14:22:17;16.80;84.00
46816;DHT22;32787;53.316;8.670;2023-07-13T14:24:43;16.70;85.20
46816;DHT22;32787;53.316;8.670;2023-07-13T14:27:12;16.50;85.20
46816;DHT22;32787;53.316;8.670;2023-07-13T14:29:38;16.40;86.30
46816;DHT22;32787;53.316;8.670;2023-07-13T14:32:07;16.40;87.50
46816;DHT22;32787;53.316;8.670;2023-07-13T14:34:33;16.30;88.00
46816;DHT22;32787;53.316;8.670;2023-07-13T14:36:59;16.30;88.20
46816;DHT22;32787;53.316;8.670;2023-07-13T14:39:25;16.50;87.30
46816;DHT22;32787;53.316;8.670;2023-07-13T14:41:52;16.30;87.40
46816;DHT22;32787;53.316;8.670;2023-07-13T14:44:22;16.30;87.80
46816;DHT22;32787;53.316;8.670;2023-07-13T14:46:49;16.30;88.40
46816;DHT22;32787;53.316;8.670;2023-07-13T14:49:27;16.20;88.50
46816;DHT22;32787;53.316;8.670;2023-07-13T14:51:55;16.20;88.40
46816;DHT22;32787;53.316;8.670;2023-07-13T14:54:23;15.90;88.80
46816;DHT22;32787;53.316;8.670;2023-07-13T14:56:49;15.90;89.40
46816;DHT22;32787;53.316;8.670;2023-07-13T14:59:16;16.20;90.10
46816;DHT22;32787;53.316;8.670;2023-07-13T15:01:44;17.00;90.20
46816;DHT22;32787;53.316;8.670;2023-07-13T15:04:10;18.60;87.10
46816;DHT22;32787;53.316;8.670;2023-07-13T15:06:59;20.10;84.70
46816;DHT22;32787;53.316;8.670;2023-07-13T15:09:26;21.10;77.20
46816;DHT22;32787;53.316;8.670;2023-07-13T15:11:56;20.80;75.70
46816;DHT22;32787;53.316;8.670;2023-07-13T15:14:22;20.30;77.80
46816;DHT22;32787;53.316;8.670;2023-07-13T15:16:50;19.70;78.50
46816;DHT22;32787;53.316;8.670;2023-07-13T15:19:17;19.40;79.80
46816;DHT22;32787;53.316;8.670;2023-07-13T15:21:43;19.20;80.80
46816;DHT22;32787;53.316;8.670;2023-07-13T15:24:12;19.10;81.30
46816;DHT22;32787;53.316;8.670;2023-07-13T15:26:38;19.20;81.10
46816;DHT22;32787;53.316;8.670;2023-07-13T15:29:04;18.60;82.30
46816;DHT22;32787;53.316;8.670;2023-07-13T15:31:30;18.00;83.20
46816;DHT22;32787;53.316;8.670;2023-07-13T15:33:58;17.60;84.30
46816;DHT22;32787;53.316;8.670;2023-07-13T15:36:24;17.30;86.20
46816;DHT22;32787;53.316;8.670;2023-07-13T15:38:54;17.10;86.50
46816;DHT22;32787;53.316;8.670;2023-07-13T15:41:26;17.10;87.20
46816;DHT22;32787;53.316;8.670;2023-07-13T15:43:57;17.10;87.90
46816;DHT22;32787;53.316;8.670;2023-07-13T15:46:24;17.70;88.50
46816;DHT22;32787;53.316;8.670;2023-07-13T15:48:51;18.30;86.90
46816;DHT22;32787;53.316;8.670;2023-07-13T15:53:46;20.70;80.70
46816;DHT22;32787;53.316;8.670;2023-07-13T15:56:22;20.70;80.80
46816;DHT22;32787;53.316;8.670;2023-07-13T15:58:49;20.40;78.40
46816;DHT22;32787;53.316;8.670;2023-07-13T16:01:16;20.10;77.10
46816;DHT22;32787;53.316;8.670;2023-07-13T16:03:42;20.80;77.00
46816;DHT22;32787;53.316;8.670;2023-07-13T16:06:24;21.50;76.80
46816;DHT22;32787;53.316;8.670;2023-07-13T16:08:51;22.10;77.60
46816;DHT22;32787;53.316;8.670;2023-07-13T16:11:26;22.50;75.80
46816;DHT22;32787;53.316;8.670;2023-07-13T16:13:52;22.90;70.70
46816;DHT22;32787;53.316;8.670;2023-07-13T16:16:27;23.00;71.60
46816;DHT22;32787;53.316;8.670;2023-07-13T16:18:55;23.60;70.50
46816;DHT22;32787;53.316;8.670;2023-07-13T16:21:22;22.70;68.70
46816;DHT22;32787;53.316;8.670;2023-07-13T16:23:49;22.40;71.40